默认 日期 大小 文件数 浏览量 最新下载 xml
running磁力链接相关资源由用户搜索指令自动获取,结果来源于网络,本站不存储任何资料,亦不承担任何责任,请于24小时内删除,搜索到8657个磁力,显示前4000条数据,用时4ms。
    {"folder.jpg": 65770, "003. Joel Corry - Sorry.mp3": 7615883, "092. Leviticus - Burial.mp3": 11819508, "094. Lily Allen - Smile.mp3": 12080733, "097. The Grid - Floatation.mp3": 9964820, "089. Rae Morris - Love Again.mp3": 7409004, "100. ...
创建时间: 2019-09-27 07:37:46 大小:1.02 GB 文件数量:101 热度:3 最近下载:2022-11-12 09:37:11
    {"Sample.avi": 6346752, "Running.with.the.Devil.2019.WEBRip.XViD.MP3-HUD.avi": 706313828, "Running.with.the.Devil.2019.WEBRip.XViD.MP3-HUD.nfo": 3594}
创建时间: 2019-09-27 12:16:05 大小:679.65 MB 文件数量:3 热度:5 最近下载:2024-12-21 08:05:01
    {"Sample.avi": 6346752, "Running.with.the.Devil.2019.WEBRip.XViD.MP3-HUD.avi": 706313828, "Running.with.the.Devil.2019.WEBRip.XViD.MP3-HUD.nfo": 3594}
创建时间: 2019-09-27 12:22:37 大小:679.65 MB 文件数量:3 热度:5 最近下载:2024-12-23 02:53:03
    ... ": 538, "Microsoft Power BI - Up & Running With Power BI Desktop": {"ReadMe ...
创建时间: 2019-09-27 13:19:47 大小:5.04 GB 文件数量:243 热度:5 最近下载:2025-01-18 01:54:03
    ... , "与魔鬼同行.Running.with.the.Devil.2019.HD720P ...
创建时间: 2019-09-27 14:31:50 大小:2.06 GB 文件数量:7 热度:39 最近下载:2025-10-14 21:04:02
    {"crack": {"run_81964.exe": 197578}, "Running King.exe": 2217000, "Running King.nfo": 616, "Torrent downloaded from Thepiratebay.sx.txt": 44}
创建时间: 2019-09-27 16:04:27 大小:2.3 MB 文件数量:4 热度:4 最近下载:2022-11-15 19:45:06
    ... ).mp3": 13940772, "113. CJ Stone - Running (Original Mix).mp3": 13015042, "067 ...
创建时间: 2019-09-27 16:31:51 大小:1.37 GB 文件数量:117 热度:5 最近下载:2024-12-09 18:57:03
    {"VIDEO_TS": {"VIDEO_TS.BUP": 12288, "VIDEO_TS.IFO": 12288, "VIDEO_TS.VOB": 59392, "VTS_01_0.BUP": 83968, "VTS_01_0.IFO": 83968, "VTS_01_0.VOB": 29210624, "VTS_01_1.VOB": 1073739776, "VTS_01_2.VOB": 1073739776, "VTS_01_3.VOB": 1073739776, "VTS_01_4.VOB": ...
创建时间: 2019-09-27 17:30:59 大小:4.36 GB 文件数量:12 热度:5 最近下载:2022-11-12 09:42:32
    ... For You.mp3": 14619293, "04. Running Across America.mp3": 10835727, "11 ...
创建时间: 2019-09-27 23:48:01 大小:99.36 MB 文件数量:12 热度:6 最近下载:2025-09-16 16:13:02
    {"sample.mkv": 16803864, "DiN_nfo.nfo": 2501, "Running.with.the.Devil.2019.576p.WEBRip.x265-DiN.mkv": 1195556641}
创建时间: 2019-09-28 00:34:10 大小:1.13 GB 文件数量:3 热度:4 最近下载:2022-11-12 09:42:53
    {"cover.jpg": 120308, "Running With the Devil - Lorelei James.azw3": 439368, "Running With the Devil - Lorelei James.epub": 285320, "Running With the Devil - Lorelei James.mobi": 372009}
创建时间: 2019-09-28 04:47:06 大小:1.16 MB 文件数量:4 热度:7 最近下载:2025-01-23 06:53:04
    {"Please": {"visit our.txt": 541, "[TGx]Downloaded from torrentgalaxy.org .txt": 636}, "English.srt": 58716, "English-SDH.srt": 85801, "Running.with.the.Devil.2019.WEBRip.XviD.MP3-YG.avi": 1507318626}
创建时间: 2019-09-28 13:36:22 大小:1.4 GB 文件数量:5 热度:3 最近下载:2022-11-15 19:53:28
    {"Cover.jpg": 57976, "03. Joel Corry - Sorry.mp3": 7607687, "92. Leviticus - Burial.mp3": 11811312, "94. Lily Allen - Smile.mp3": 12072537, "Downloaded From RARBG.to.txt": 40, "97. The Grid - Floatation.mp3": 9956621, "89. Rae Morris - Love Again.mp3": ...
创建时间: 2019-09-28 16:53:19 大小:1.02 GB 文件数量:102 热度:4 最近下载:2022-11-12 09:53:45
    ... . Ouverture (Prayer).mp3": 4009911, "02. Running to the Moon.mp3": 6698833 ...
创建时间: 2019-09-28 16:56:14 大小:104.33 MB 文件数量:14 热度:5 最近下载:2025-03-14 00:38:02
    {"[TGx]Downloaded from torrentgalaxy.to .txt": 689, "Running with the Devil.2019.720p.WEB-DL.X264.AC3-EVO.mkv": 2308947912, "Running with the Devil.2019.720p.WEB-DL.X264.AC3-EVO (2).nfo": 742}
创建时间: 2019-09-28 17:35:53 大小:2.15 GB 文件数量:3 热度:4 最近下载:2022-11-12 13:02:15
    {"Downloaded from www.ETTV.tv .txt": 270, "Running.with.the.Devil.2019.1080p.AMZN.WEB-DL.DDP5.1.H.264-NTG[EtHD].mkv": 6419662024}
创建时间: 2019-09-28 18:20:48 大小:5.98 GB 文件数量:2 热度:4 最近下载:2022-11-15 20:01:45
    {"cover.jpg": 92884, "43. Fame (136 BPM).mp3": 14074599, "10. Stomp (128 BPM).mp3": 11783075, "18. Fresh (128 BPM).mp3": 11033321, "23. Runaway (128 BPM).mp3": 12293799, "50. Go West (145 BPM).mp3": 10216365, "02. Thriller (125 BPM).mp3": 12190126, "03. Le ...
创建时间: 2019-09-28 21:25:46 大小:538.22 MB 文件数量:51 热度:4 最近下载:2022-11-12 12:34:52
    {"Sample": {"sample.mp4": 64908910}, "Screens": {"screen0001.jpg": 534691, "screen0002.jpg": 399240, "screen0003.jpg": 394142, "screen0004.jpg": 391569, "screen0005.jpg": 381296, "screen0006.jpg": 373287, "screen0007.jpg": 227652, "screen0008.jpg": 225047, ...
创建时间: 2019-09-28 21:34:07 大小:1.88 GB 文件数量:13 热度:9 最近下载:2024-09-12 11:51:02
    {"Running.with.the.Devil.2019.720p.WEBRip.RENOMEIE.PARA.O.SEU.RELEASE.srt": 64489}
创建时间: 2019-09-29 02:16:59 大小:62.98 KB 文件数量:1 热度:3 最近下载:2022-11-12 10:21:43
    {"WWW.YIFY-TORRENTS.COM.jpg": 110976, "Torrent downloaded from H33t.to.txt": 48, "Running Windows Network Diagnostics (x64-x32) 2019.exe": 6427836}
创建时间: 2019-09-29 02:44:24 大小:6.24 MB 文件数量:3 热度:6 最近下载:2025-02-04 12:42:02